sensor_id;sensor_type;location;lat;lon;timestamp;pressure;altitude;pressure_sealevel;temperature;humidity
59757;BME280;45631;51.962;5.974;2023-05-03T00:00:06;102780.75;;;5.68;100.00
59757;BME280;45631;51.962;5.974;2023-05-03T00:02:35;102780.72;;;5.69;100.00
59757;BME280;45631;51.962;5.974;2023-05-03T00:05:07;102785.91;;;5.74;100.00
59757;BME280;45631;51.962;5.974;2023-05-03T00:07:41;102786.84;;;5.67;100.00
59757;BME280;45631;51.962;5.974;2023-05-03T00:10:09;102789.56;;;5.61;100.00
59757;BME280;45631;51.962;5.974;2023-05-03T00:12:41;102786.09;;;5.58;100.00
59757;BME280;45631;51.962;5.974;2023-05-03T00:15:10;102785.97;;;5.68;100.00
59757;BME280;45631;51.962;5.974;2023-05-03T00:17:38;102781.66;;;5.65;100.00
59757;BME280;45631;51.962;5.974;2023-05-03T00:20:09;102792.19;;;5.59;100.00
59757;BME280;45631;51.962;5.974;2023-05-03T00:22:38;102780.88;;;5.57;100.00
59757;BME280;45631;51.962;5.974;2023-05-03T00:25:07;102785.22;;;5.59;100.00
59757;BME280;45631;51.962;5.974;2023-05-03T00:27:35;102775.75;;;5.52;100.00
59757;BME280;45631;51.962;5.974;2023-05-03T00:30:07;102783.59;;;5.49;100.00
59757;BME280;45631;51.962;5.974;2023-05-03T00:32:35;102787.13;;;5.45;100.00
59757;BME280;45631;51.962;5.974;2023-05-03T00:35:04;102779.25;;;5.47;100.00
59757;BME280;45631;51.962;5.974;2023-05-03T00:37:32;102782.03;;;5.37;100.00
59757;BME280;45631;51.962;5.974;2023-05-03T00:40:00;102782.06;;;5.33;100.00
59757;BME280;45631;51.962;5.974;2023-05-03T00:42:32;102779.50;;;5.30;100.00
59757;BME280;45631;51.962;5.974;2023-05-03T00:45:01;102779.47;;;5.31;100.00
59757;BME280;45631;51.962;5.974;2023-05-03T00:47:32;102782.16;;;5.23;100.00
59757;BME280;45631;51.962;5.974;2023-05-03T00:50:01;102781.25;;;5.29;100.00
59757;BME280;45631;51.962;5.974;2023-05-03T00:52:29;102793.44;;;5.27;100.00
59757;BME280;45631;51.962;5.974;2023-05-03T00:54:58;102779.56;;;5.25;100.00
59757;BME280;45631;51.962;5.974;2023-05-03T00:57:29;102788.34;;;5.16;100.00
59757;BME280;45631;51.962;5.974;2023-05-03T01:00:00;102781.44;;;5.12;100.00
59757;BME280;45631;51.962;5.974;2023-05-03T01:02:31;102783.19;;;5.12;100.00
59757;BME280;45631;51.962;5.974;2023-05-03T01:05:00;102782.31;;;5.11;100.00
59757;BME280;45631;51.962;5.974;2023-05-03T01:07:36;102778.91;;;5.06;100.00
59757;BME280;45631;51.962;5.974;2023-05-03T01:10:17;102776.34;;;5.01;100.00
59757;BME280;45631;51.962;5.974;2023-05-03T01:12:54;102778.97;;;5.00;100.00
59757;BME280;45631;51.962;5.974;2023-05-03T01:15:34;102780.69;;;5.01;100.00
59757;BME280;45631;51.962;5.974;2023-05-03T01:18:14;102770.25;;;5.01;100.00
59757;BME280;45631;51.962;5.974;2023-05-03T01:20:47;102769.47;;;4.94;100.00
59757;BME280;45631;51.962;5.974;2023-05-03T01:23:26;102773.78;;;4.97;100.00
59757;BME280;45631;51.962;5.974;2023-05-03T01:25:57;102781.66;;;4.90;100.00
59757;BME280;45631;51.962;5.974;2023-05-03T01:28:26;102787.78;;;4.86;100.00
59757;BME280;45631;51.962;5.974;2023-05-03T01:30:58;102787.69;;;4.96;100.00
59757;BME280;45631;51.962;5.974;2023-05-03T01:33:32;102785.16;;;4.88;100.00
59757;BME280;45631;51.962;5.974;2023-05-03T01:36:08;102793.88;;;4.87;100.00
59757;BME280;45631;51.962;5.974;2023-05-03T01:38:38;102788.56;;;4.98;100.00
59757;BME280;45631;51.962;5.974;2023-05-03T01:41:11;102782.34;;;5.08;100.00
59757;BME280;45631;51.962;5.974;2023-05-03T01:43:42;102786.78;;;5.00;100.00
59757;BME280;45631;51.962;5.974;2023-05-03T01:46:11;102788.56;;;4.98;100.00
59757;BME280;45631;51.962;5.974;2023-05-03T01:48:39;102790.25;;;5.02;100.00
59757;BME280;45631;51.962;5.974;2023-05-03T01:51:07;102794.72;;;4.89;100.00
59757;BME280;45631;51.962;5.974;2023-05-03T01:53:36;102792.00;;;5.00;100.00
59757;BME280;45631;51.962;5.974;2023-05-03T01:56:05;102799.03;;;4.93;100.00
59757;BME280;45631;51.962;5.974;2023-05-03T01:58:35;102788.66;;;4.87;100.00
59757;BME280;45631;51.962;5.974;2023-05-03T02:01:03;102793.94;;;4.81;100.00
59757;BME280;45631;51.962;5.974;2023-05-03T02:03:32;102788.72;;;4.79;100.00
59757;BME280;45631;51.962;5.974;2023-05-03T02:06:01;102779.13;;;4.81;100.00
59757;BME280;45631;51.962;5.974;2023-05-03T02:08:29;102776.44;;;4.94;100.00
59757;BME280;45631;51.962;5.974;2023-05-03T02:10:57;102785.97;;;4.95;100.00
59757;BME280;45631;51.962;5.974;2023-05-03T02:13:25;102773.91;;;4.86;100.00
59757;BME280;45631;51.962;5.974;2023-05-03T02:15:57;102787.06;;;4.73;100.00
59757;BME280;45631;51.962;5.974;2023-05-03T02:18:25;102787.09;;;4.70;100.00
59757;BME280;45631;51.962;5.974;2023-05-03T02:20:57;102781.88;;;4.67;100.00
59757;BME280;45631;51.962;5.974;2023-05-03T02:23:25;102792.34;;;4.64;100.00
59757;BME280;45631;51.962;5.974;2023-05-03T02:25:53;102786.28;;;4.64;100.00
59757;BME280;45631;51.962;5.974;2023-05-03T02:28:21;102791.50;;;4.64;100.00
59757;BME280;45631;51.962;5.974;2023-05-03T02:30:49;102779.34;;;4.63;100.00
59757;BME280;45631;51.962;5.974;2023-05-03T02:33:19;102779.38;;;4.60;100.00
59757;BME280;45631;51.962;5.974;2023-05-03T02:35:47;102775.84;;;4.64;100.00
59757;BME280;45631;51.962;5.974;2023-05-03T02:38:15;102774.97;;;4.65;100.00
59757;BME280;45631;51.962;5.974;2023-05-03T02:40:43;102774.97;;;4.65;100.00
59757;BME280;45631;51.962;5.974;2023-05-03T02:43:11;102777.56;;;4.68;100.00
59757;BME280;45631;51.962;5.974;2023-05-03T02:45:39;102774.94;;;4.69;100.00
59757;BME280;45631;51.962;5.974;2023-05-03T02:48:09;102774.97;;;4.65;100.00
59757;BME280;45631;51.962;5.974;2023-05-03T02:50:39;102774.97;;;4.63;100.00
59757;BME280;45631;51.962;5.974;2023-05-03T02:53:10;102770.59;;;4.67;100.00
59757;BME280;45631;51.962;5.974;2023-05-03T02:55:38;102773.22;;;4.65;100.00
59757;BME280;45631;51.962;5.974;2023-05-03T02:58:06;102769.72;;;4.69;100.00
59757;BME280;45631;51.962;5.974;2023-05-03T03:00:35;102759.31;;;4.66;100.00
59757;BME280;45631;51.962;5.974;2023-05-03T03:03:03;102761.06;;;4.64;100.00
59757;BME280;45631;51.962;5.974;2023-05-03T03:05:31;102758.53;;;4.56;100.00
59757;BME280;45631;51.962;5.974;2023-05-03T03:08:01;102755.97;;;4.52;100.00
59757;BME280;45631;51.962;5.974;2023-05-03T03:10:29;102757.66;;;4.57;100.00
59757;BME280;45631;51.962;5.974;2023-05-03T03:12:57;102757.75;;;4.47;100.00
59757;BME280;45631;51.962;5.974;2023-05-03T03:15:25;102747.41;;;4.40;100.00
59757;BME280;45631;51.962;5.974;2023-05-03T03:17:53;102743.94;;;4.37;100.00
59757;BME280;45631;51.962;5.974;2023-05-03T03:20:23;102737.06;;;4.27;100.00
59757;BME280;45631;51.962;5.974;2023-05-03T03:22:51;102734.47;;;4.30;100.00
59757;BME280;45631;51.962;5.974;2023-05-03T03:25:21;102735.47;;;4.15;100.00
59757;BME280;45631;51.962;5.974;2023-05-03T03:27:49;102731.13;;;4.14;100.00
59757;BME280;45631;51.962;5.974;2023-05-03T03:30:17;102738.91;;;4.20;100.00
59757;BME280;45631;51.962;5.974;2023-05-03T03:32:45;102741.56;;;4.12;100.00
59757;BME280;45631;51.962;5.974;2023-05-03T03:35:14;102742.31;;;4.23;100.00
59757;BME280;45631;51.962;5.974;2023-05-03T03:37:42;102739.69;;;4.30;100.00
59757;BME280;45631;51.962;5.974;2023-05-03T03:40:11;102749.28;;;4.23;100.00
59757;BME280;45631;51.962;5.974;2023-05-03T03:42:41;102757.03;;;4.28;100.00
59757;BME280;45631;51.962;5.974;2023-05-03T03:45:10;102753.59;;;4.22;100.00
59757;BME280;45631;51.962;5.974;2023-05-03T03:47:38;102751.81;;;4.31;100.00
59757;BME280;45631;51.962;5.974;2023-05-03T03:50:07;102754.47;;;4.25;100.00
59757;BME280;45631;51.962;5.974;2023-05-03T03:52:35;102750.16;;;4.22;100.00
59757;BME280;45631;51.962;5.974;2023-05-03T03:55:04;102756.16;;;4.32;100.00
59757;BME280;45631;51.962;5.974;2023-05-03T03:57:32;102761.44;;;4.24;100.00
59757;BME280;45631;51.962;5.974;2023-05-03T04:00:02;102751.84;;;4.28;100.00
59757;BME280;45631;51.962;5.974;2023-05-03T04:02:36;102757.91;;;4.30;100.00
59757;BME280;45631;51.962;5.974;2023-05-03T04:05:05;102761.44;;;4.19;100.00
59757;BME280;45631;51.962;5.974;2023-05-03T04:07:33;102764.09;;;4.12;100.00
59757;BME280;45631;51.962;5.974;2023-05-03T04:10:01;102763.22;;;4.14;100.00
59757;BME280;45631;51.962;5.974;2023-05-03T04:12:30;102758.91;;;4.12;100.00
59757;BME280;45631;51.962;5.974;2023-05-03T04:14:59;102758.91;;;4.10;100.00
59757;BME280;45631;51.962;5.974;2023-05-03T04:17:29;102761.56;;;4.05;100.00
59757;BME280;45631;51.962;5.974;2023-05-03T04:19:57;102771.09;;;4.08;100.00
59757;BME280;45631;51.962;5.974;2023-05-03T04:22:26;102765.88;;;4.08;100.00
59757;BME280;45631;51.962;5.974;2023-05-03T04:24:56;102764.97;;;4.14;100.00
59757;BME280;45631;51.962;5.974;2023-05-03T04:27:29;102769.25;;;4.19;100.00
59757;BME280;45631;51.962;5.974;2023-05-03T04:29:59;102768.41;;;4.16;100.00
59757;BME280;45631;51.962;5.974;2023-05-03T04:32:29;102772.75;;;4.18;100.00
59757;BME280;45631;51.962;5.974;2023-05-03T04:35:03;102780.59;;;4.15;100.00
59757;BME280;45631;51.962;5.974;2023-05-03T04:37:35;102788.44;;;4.12;100.00
59757;BME280;45631;51.962;5.974;2023-05-03T04:40:05;102791.88;;;4.14;100.00
59757;BME280;45631;51.962;5.974;2023-05-03T04:42:34;102800.56;;;4.10;100.00
59757;BME280;45631;51.962;5.974;2023-05-03T04:45:03;102798.88;;;4.09;100.00
59757;BME280;45631;51.962;5.974;2023-05-03T04:47:34;102802.38;;;4.05;100.00
59757;BME280;45631;51.962;5.974;2023-05-03T04:50:03;102801.47;;;4.07;100.00
59757;BME280;45631;51.962;5.974;2023-05-03T04:52:34;102804.97;;;4.03;100.00
59757;BME280;45631;51.962;5.974;2023-05-03T04:55:03;102805.88;;;3.98;100.00
59757;BME280;45631;51.962;5.974;2023-05-03T04:57:32;102809.38;;;3.97;100.00
59757;BME280;45631;51.962;5.974;2023-05-03T05:00:00;102816.28;;;3.96;100.00
59757;BME280;45631;51.962;5.974;2023-05-03T05:02:30;102821.47;;;4.02;100.00
59757;BME280;45631;51.962;5.974;2023-05-03T05:04:59;102824.97;;;4.00;100.00
59757;BME280;45631;51.962;5.974;2023-05-03T05:07:28;102831.03;;;4.00;100.00
59757;BME280;45631;51.962;5.974;2023-05-03T05:09:56;102828.41;;;4.02;100.00
59757;BME280;45631;51.962;5.974;2023-05-03T05:12:24;102827.56;;;4.01;100.00
59757;BME280;45631;51.962;5.974;2023-05-03T05:14:52;102839.66;;;4.10;100.00
59757;BME280;45631;51.962;5.974;2023-05-03T05:17:21;102840.53;;;4.09;100.00
59757;BME280;45631;51.962;5.974;2023-05-03T05:19:51;102837.00;;;4.16;100.00
59757;BME280;45631;51.962;5.974;2023-05-03T05:22:21;102844.81;;;4.19;100.00
59757;BME280;45631;51.962;5.974;2023-05-03T05:24:49;102844.78;;;4.22;100.00
59757;BME280;45631;51.962;5.974;2023-05-03T05:27:17;102843.00;;;4.29;100.00
59757;BME280;45631;51.962;5.974;2023-05-03T05:29:45;102843.84;;;4.33;100.00
59757;BME280;45631;51.962;5.974;2023-05-03T05:32:16;102849.03;;;4.36;100.00
59757;BME280;45631;51.962;5.974;2023-05-03T05:34:44;102841.19;;;4.39;100.00
59757;BME280;45631;51.962;5.974;2023-05-03T05:37:18;102846.34;;;4.48;100.00
59757;BME280;45631;51.962;5.974;2023-05-03T05:39:48;102850.63;;;4.52;100.00
59757;BME280;45631;51.962;5.974;2023-05-03T05:42:18;102855.78;;;4.63;100.00
59757;BME280;45631;51.962;5.974;2023-05-03T05:44:47;102853.13;;;4.71;100.00
59757;BME280;45631;51.962;5.974;2023-05-03T05:47:15;102853.91;;;4.79;100.00
59757;BME280;45631;51.962;5.974;2023-05-03T05:49:43;102858.16;;;4.88;100.00
59757;BME280;45631;51.962;5.974;2023-05-03T05:52:11;102857.28;;;4.94;100.00
59757;BME280;45631;51.962;5.974;2023-05-03T05:54:39;102857.97;;;5.08;100.00
59757;BME280;45631;51.962;5.974;2023-05-03T05:57:09;102852.50;;;5.36;100.00
59757;BME280;45631;51.962;5.974;2023-05-03T05:59:38;102851.53;;;5.43;100.00
59757;BME280;45631;51.962;5.974;2023-05-03T06:02:13;102852.38;;;5.44;100.00
59757;BME280;45631;51.962;5.974;2023-05-03T06:04:42;102859.28;;;5.51;100.00
59757;BME280;45631;51.962;5.974;2023-05-03T06:07:10;102856.56;;;5.58;100.00
59757;BME280;45631;51.962;5.974;2023-05-03T06:09:38;102849.47;;;5.71;100.00
59757;BME280;45631;51.962;5.974;2023-05-03T06:12:08;102851.94;;;5.81;100.00
59757;BME280;45631;51.962;5.974;2023-05-03T06:14:37;102852.72;;;5.87;100.00
59757;BME280;45631;51.962;5.974;2023-05-03T06:17:12;102854.34;;;5.99;100.00
59757;BME280;45631;51.962;5.974;2023-05-03T06:19:41;102849.97;;;6.01;100.00
59757;BME280;45631;51.962;5.974;2023-05-03T06:22:10;102856.72;;;6.16;100.00
59757;BME280;45631;51.962;5.974;2023-05-03T06:24:41;102852.06;;;6.37;100.00
59757;BME280;45631;51.962;5.974;2023-05-03T06:27:11;102840.66;;;6.42;100.00
59757;BME280;45631;51.962;5.974;2023-05-03T06:29:39;102850.13;;;6.48;100.00
59757;BME280;45631;51.962;5.974;2023-05-03T06:32:07;102847.28;;;6.62;100.00
59757;BME280;45631;51.962;5.974;2023-05-03T06:34:35;102847.19;;;6.70;100.00
59757;BME280;45631;51.962;5.974;2023-05-03T06:37:03;102856.53;;;6.83;100.00
59757;BME280;45631;51.962;5.974;2023-05-03T06:39:32;102859.81;;;6.94;100.00
59757;BME280;45631;51.962;5.974;2023-05-03T06:42:00;102857.84;;;7.09;100.00
59757;BME280;45631;51.962;5.974;2023-05-03T06:44:30;102855.03;;;7.18;100.00
59757;BME280;45631;51.962;5.974;2023-05-03T06:46:58;102849.31;;;7.43;100.00
59757;BME280;45631;51.962;5.974;2023-05-03T06:49:26;102847.44;;;7.51;100.00
59757;BME280;45631;51.962;5.974;2023-05-03T06:51:54;102845.34;;;7.67;100.00
59757;BME280;45631;51.962;5.974;2023-05-03T06:54:22;102847.75;;;7.76;100.00
59757;BME280;45631;51.962;5.974;2023-05-03T06:56:51;102843.16;;;7.88;100.00
59757;BME280;45631;51.962;5.974;2023-05-03T06:59:19;102842.88;;;8.02;100.00
59757;BME280;45631;51.962;5.974;2023-05-03T07:01:48;102839.03;;;8.15;100.00
59757;BME280;45631;51.962;5.974;2023-05-03T07:04:16;102838.91;;;8.21;100.00
59757;BME280;45631;51.962;5.974;2023-05-03T07:06:45;102833.34;;;8.35;100.00
59757;BME280;45631;51.962;5.974;2023-05-03T07:09:22;102825.25;;;8.46;100.00
59757;BME280;45631;51.962;5.974;2023-05-03T07:12:08;102829.13;;;8.66;100.00
59757;BME280;45631;51.962;5.974;2023-05-03T07:14:37;102832.38;;;8.75;100.00
59757;BME280;45631;51.962;5.974;2023-05-03T07:17:06;102834.66;;;8.89;98.50
59757;BME280;45631;51.962;5.974;2023-05-03T07:19:35;102839.66;;;8.99;97.98
59757;BME280;45631;51.962;5.974;2023-05-03T07:22:04;102829.84;;;9.05;94.74
59757;BME280;45631;51.962;5.974;2023-05-03T07:24:32;102842.06;;;9.06;95.30
59757;BME280;45631;51.962;5.974;2023-05-03T07:27:00;102839.72;;;9.28;99.19
59757;BME280;45631;51.962;5.974;2023-05-03T07:29:29;102842.56;;;9.52;95.58
59757;BME280;45631;51.962;5.974;2023-05-03T07:31:57;102839.28;;;9.74;93.58
59757;BME280;45631;51.962;5.974;2023-05-03T07:34:29;102834.88;;;9.74;89.83
59757;BME280;45631;51.962;5.974;2023-05-03T07:36:58;102821.53;;;9.82;89.53
59757;BME280;45631;51.962;5.974;2023-05-03T07:39:29;102821.94;;;9.96;87.31
59757;BME280;45631;51.962;5.974;2023-05-03T07:41:57;102820.19;;;9.97;86.02
59757;BME280;45631;51.962;5.974;2023-05-03T07:44:28;102814.69;;;10.05;86.28
59757;BME280;45631;51.962;5.974;2023-05-03T07:46:56;102804.13;;;10.33;86.58
59757;BME280;45631;51.962;5.974;2023-05-03T07:49:24;102803.88;;;10.42;83.01
59757;BME280;45631;51.962;5.974;2023-05-03T07:51:54;102804.22;;;10.58;83.29
59757;BME280;45631;51.962;5.974;2023-05-03T07:54:22;102806.75;;;10.61;79.04
59757;BME280;45631;51.962;5.974;2023-05-03T07:56:50;102796.03;;;10.66;77.28
59757;BME280;45631;51.962;5.974;2023-05-03T07:59:21;102790.22;;;10.83;76.49
59757;BME280;45631;51.962;5.974;2023-05-03T08:01:52;102791.19;;;11.06;79.59
59757;BME280;45631;51.962;5.974;2023-05-03T08:04:20;102783.84;;;11.14;75.34
59757;BME280;45631;51.962;5.974;2023-05-03T08:06:50;102783.28;;;11.29;75.25
59757;BME280;45631;51.962;5.974;2023-05-03T08:09:19;102785.09;;;11.51;74.28
59757;BME280;45631;51.962;5.974;2023-05-03T08:11:48;102775.19;;;11.80;73.27
59757;BME280;45631;51.962;5.974;2023-05-03T08:14:16;102773.94;;;11.90;69.81
59757;BME280;45631;51.962;5.974;2023-05-03T08:16:44;102771.81;;;11.76;70.01
59757;BME280;45631;51.962;5.974;2023-05-03T08:19:12;102776.03;;;12.04;69.47
59757;BME280;45631;51.962;5.974;2023-05-03T08:21:40;102777.13;;;12.21;68.07
59757;BME280;45631;51.962;5.974;2023-05-03T08:24:08;102768.38;;;12.41;66.51
59757;BME280;45631;51.962;5.974;2023-05-03T08:26:41;102769.28;;;12.40;68.15
59757;BME280;45631;51.962;5.974;2023-05-03T08:29:12;102780.50;;;12.45;65.78
59757;BME280;45631;51.962;5.974;2023-05-03T08:31:40;102780.00;;;12.57;67.12
59757;BME280;45631;51.962;5.974;2023-05-03T08:34:08;102777.06;;;12.84;65.38
59757;BME280;45631;51.962;5.974;2023-05-03T08:36:36;102780.69;;;12.81;66.34
59757;BME280;45631;51.962;5.974;2023-05-03T08:39:04;102778.31;;;12.96;64.79
59757;BME280;45631;51.962;5.974;2023-05-03T08:41:33;102777.41;;;13.16;63.17
59757;BME280;45631;51.962;5.974;2023-05-03T08:44:03;102772.78;;;13.21;62.87
59757;BME280;45631;51.962;5.974;2023-05-03T08:46:31;102774.91;;;13.52;63.34
59757;BME280;45631;51.962;5.974;2023-05-03T08:49:03;102771.59;;;13.66;62.03
59757;BME280;45631;51.962;5.974;2023-05-03T08:51:33;102773.00;;;13.74;61.32
59757;BME280;45631;51.962;5.974;2023-05-03T08:54:01;102777.81;;;13.46;63.53
59757;BME280;45631;51.962;5.974;2023-05-03T08:56:34;102771.81;;;13.43;62.99
59757;BME280;45631;51.962;5.974;2023-05-03T08:59:07;102771.81;;;13.43;62.65
59757;BME280;45631;51.962;5.974;2023-05-03T09:01:36;102762.56;;;13.32;64.28
59757;BME280;45631;51.962;5.974;2023-05-03T09:04:05;102752.38;;;13.44;62.50
59757;BME280;45631;51.962;5.974;2023-05-03T09:06:33;102760.38;;;13.42;61.73
59757;BME280;45631;51.962;5.974;2023-05-03T09:09:03;102746.78;;;13.69;62.98
59757;BME280;45631;51.962;5.974;2023-05-03T09:11:34;102744.63;;;13.77;61.96
59757;BME280;45631;51.962;5.974;2023-05-03T09:14:14;102752.03;;;14.06;62.05
59757;BME280;45631;51.962;5.974;2023-05-03T09:16:44;102766.94;;;14.26;61.82
59757;BME280;45631;51.962;5.974;2023-05-03T09:19:14;102763.53;;;14.41;59.09
59757;BME280;45631;51.962;5.974;2023-05-03T09:21:43;102774.03;;;14.60;59.22
59757;BME280;45631;51.962;5.974;2023-05-03T09:24:13;102769.34;;;14.48;57.84
59757;BME280;45631;51.962;5.974;2023-05-03T09:26:42;102767.66;;;14.47;58.18
59757;BME280;45631;51.962;5.974;2023-05-03T09:29:26;102760.00;;;14.41;58.25
59757;BME280;45631;51.962;5.974;2023-05-03T09:31:58;102772.97;;;14.64;57.68
59757;BME280;45631;51.962;5.974;2023-05-03T09:34:27;102769.97;;;14.70;57.00
59757;BME280;45631;51.962;5.974;2023-05-03T09:36:55;102767.00;;;14.59;57.18
59757;BME280;45631;51.962;5.974;2023-05-03T09:39:23;102765.88;;;14.65;56.51
59757;BME280;45631;51.962;5.974;2023-05-03T09:41:52;102764.44;;;15.09;54.67
59757;BME280;45631;51.962;5.974;2023-05-03T09:44:39;102762.75;;;15.24;55.28
59757;BME280;45631;51.962;5.974;2023-05-03T09:47:08;102752.84;;;15.59;57.04
59757;BME280;45631;51.962;5.974;2023-05-03T09:49:36;102756.09;;;15.64;55.02
59757;BME280;45631;51.962;5.974;2023-05-03T09:52:05;102751.81;;;15.78;54.50
59757;BME280;45631;51.962;5.974;2023-05-03T09:54:34;102752.84;;;15.91;52.44
59757;BME280;45631;51.962;5.974;2023-05-03T09:57:03;102752.47;;;15.97;52.88
59757;BME280;45631;51.962;5.974;2023-05-03T09:59:33;102756.84;;;15.98;52.53
59757;BME280;45631;51.962;5.974;2023-05-03T10:02:05;102756.28;;;15.61;52.44
59757;BME280;45631;51.962;5.974;2023-05-03T10:04:38;102755.44;;;15.45;54.79
59757;BME280;45631;51.962;5.974;2023-05-03T10:07:11;102743.09;;;15.44;52.34
59757;BME280;45631;51.962;5.974;2023-05-03T10:09:42;102754.72;;;15.73;53.32
59757;BME280;45631;51.962;5.974;2023-05-03T10:12:11;102742.59;;;15.85;51.76
59757;BME280;45631;51.962;5.974;2023-05-03T10:14:45;102742.28;;;16.05;52.90
59757;BME280;45631;51.962;5.974;2023-05-03T10:17:18;102743.38;;;16.32;52.63
59757;BME280;45631;51.962;5.974;2023-05-03T10:20:09;102749.50;;;16.63;51.69
59757;BME280;45631;51.962;5.974;2023-05-03T10:23:11;102738.09;;;16.91;50.92
59757;BME280;45631;51.962;5.974;2023-05-03T10:26:12;102744.13;;;17.22;50.72
59757;BME280;45631;51.962;5.974;2023-05-03T10:28:40;102742.34;;;16.94;47.89
59757;BME280;45631;51.962;5.974;2023-05-03T10:31:44;102732.09;;;17.02;49.70
59757;BME280;45631;51.962;5.974;2023-05-03T10:34:21;102748.69;;;17.20;49.84
59757;BME280;45631;51.962;5.974;2023-05-03T10:36:50;102742.78;;;17.29;47.94
59757;BME280;45631;51.962;5.974;2023-05-03T10:39:20;102741.53;;;17.35;47.04
59757;BME280;45631;51.962;5.974;2023-05-03T10:41:57;102728.22;;;17.49;46.52
59757;BME280;45631;51.962;5.974;2023-05-03T10:44:28;102732.41;;;17.66;45.73
59757;BME280;45631;51.962;5.974;2023-05-03T10:47:12;102735.44;;;18.02;45.86
59757;BME280;45631;51.962;5.974;2023-05-03T10:49:40;102737.59;;;18.22;47.53
59757;BME280;45631;51.962;5.974;2023-05-03T10:52:44;102736.53;;;18.25;45.11
59757;BME280;45631;51.962;5.974;2023-05-03T10:55:14;102727.31;;;18.44;47.06
59757;BME280;45631;51.962;5.974;2023-05-03T10:57:44;102728.91;;;18.46;44.91
59757;BME280;45631;51.962;5.974;2023-05-03T11:00:17;102728.16;;;18.57;44.53
59757;BME280;45631;51.962;5.974;2023-05-03T11:03:12;102728.66;;;18.62;44.04
59757;BME280;45631;51.962;5.974;2023-05-03T11:05:46;102729.31;;;18.27;43.09
59757;BME280;45631;51.962;5.974;2023-05-03T11:08:16;102724.81;;;18.40;42.46
59757;BME280;45631;51.962;5.974;2023-05-03T11:10:45;102723.78;;;18.56;42.83
59757;BME280;45631;51.962;5.974;2023-05-03T11:13:14;102721.09;;;18.69;43.07
59757;BME280;45631;51.962;5.974;2023-05-03T11:15:42;102714.59;;;18.99;42.83
59757;BME280;45631;51.962;5.974;2023-05-03T11:18:15;102707.47;;;18.99;44.22
59757;BME280;45631;51.962;5.974;2023-05-03T11:20:44;102703.69;;;19.02;42.52
59757;BME280;45631;51.962;5.974;2023-05-03T11:23:12;102696.91;;;19.22;41.11
59757;BME280;45631;51.962;5.974;2023-05-03T11:25:40;102691.59;;;19.46;42.02
59757;BME280;45631;51.962;5.974;2023-05-03T11:28:08;102685.91;;;19.51;41.99
59757;BME280;45631;51.962;5.974;2023-05-03T11:30:36;102695.06;;;19.59;40.57
59757;BME280;45631;51.962;5.974;2023-05-03T11:33:05;102685.47;;;19.33;41.69
59757;BME280;45631;51.962;5.974;2023-05-03T11:35:34;102691.72;;;19.20;41.63
59757;BME280;45631;51.962;5.974;2023-05-03T11:38:05;102691.22;;;19.39;40.81
59757;BME280;45631;51.962;5.974;2023-05-03T11:40:37;102682.09;;;19.31;40.96
59757;BME280;45631;51.962;5.974;2023-05-03T11:43:05;102683.31;;;19.38;41.33
59757;BME280;45631;51.962;5.974;2023-05-03T11:45:38;102679.66;;;19.63;41.45
59757;BME280;45631;51.962;5.974;2023-05-03T11:48:08;102670.03;;;19.49;41.77
59757;BME280;45631;51.962;5.974;2023-05-03T11:50:45;102677.00;;;19.63;40.88
59757;BME280;45631;51.962;5.974;2023-05-03T11:53:14;102669.75;;;19.89;38.36
59757;BME280;45631;51.962;5.974;2023-05-03T11:55:44;102667.91;;;19.90;40.00
59757;BME280;45631;51.962;5.974;2023-05-03T11:58:14;102667.53;;;19.95;38.59
59757;BME280;45631;51.962;5.974;2023-05-03T12:00:43;102662.75;;;20.22;38.34
59757;BME280;45631;51.962;5.974;2023-05-03T12:03:16;102666.78;;;20.51;38.36
59757;BME280;45631;51.962;5.974;2023-05-03T12:05:47;102653.88;;;20.56;38.85
59757;BME280;45631;51.962;5.974;2023-05-03T12:08:16;102654.53;;;20.71;39.13
59757;BME280;45631;51.962;5.974;2023-05-03T12:10:48;102654.75;;;20.11;37.68
59757;BME280;45631;51.962;5.974;2023-05-03T12:13:25;102645.28;;;20.52;37.67
59757;BME280;45631;51.962;5.974;2023-05-03T12:15:57;102641.91;;;20.73;39.22
59757;BME280;45631;51.962;5.974;2023-05-03T12:18:50;102647.56;;;20.91;38.45
59757;BME280;45631;51.962;5.974;2023-05-03T12:21:42;102635.44;;;20.87;36.43
59757;BME280;45631;51.962;5.974;2023-05-03T12:24:21;102630.97;;;21.20;36.60
59757;BME280;45631;51.962;5.974;2023-05-03T12:26:50;102627.75;;;20.93;36.05
59757;BME280;45631;51.962;5.974;2023-05-03T12:29:18;102630.09;;;20.87;36.28
59757;BME280;45631;51.962;5.974;2023-05-03T12:31:49;102625.66;;;21.08;36.37
59757;BME280;45631;51.962;5.974;2023-05-03T12:34:21;102626.16;;;21.02;36.47
59757;BME280;45631;51.962;5.974;2023-05-03T12:36:53;102610.22;;;21.01;36.51
59757;BME280;45631;51.962;5.974;2023-05-03T12:39:29;102616.22;;;20.82;37.16
59757;BME280;45631;51.962;5.974;2023-05-03T12:41:58;102611.00;;;20.91;36.02
59757;BME280;45631;51.962;5.974;2023-05-03T12:44:32;102606.19;;;20.74;36.02
59757;BME280;45631;51.962;5.974;2023-05-03T12:47:01;102600.97;;;21.16;37.14
59757;BME280;45631;51.962;5.974;2023-05-03T12:49:33;102604.22;;;21.20;35.74
59757;BME280;45631;51.962;5.974;2023-05-03T12:52:06;102598.28;;;21.70;36.17
59757;BME280;45631;51.962;5.974;2023-05-03T12:54:37;102591.09;;;21.91;35.97
59757;BME280;45631;51.962;5.974;2023-05-03T12:57:08;102595.22;;;21.95;35.46
59757;BME280;45631;51.962;5.974;2023-05-03T12:59:41;102588.38;;;22.12;34.94
59757;BME280;45631;51.962;5.974;2023-05-03T13:02:18;102584.59;;;21.84;34.74
59757;BME280;45631;51.962;5.974;2023-05-03T13:04:53;102584.88;;;21.91;36.58
59757;BME280;45631;51.962;5.974;2023-05-03T13:07:28;102581.22;;;21.50;36.20